sensor_id;sensor_type;location;lat;lon;timestamp;pressure;altitude;pressure_sealevel;temperature;humidity
17781;BME280;8498;52.516;13.790;2022-11-11T00:01:58;102292.72;;;11.61;84.26
17781;BME280;8498;52.516;13.790;2022-11-11T00:07:39;102297.75;;;11.67;83.86
17781;BME280;8498;52.516;13.790;2022-11-11T00:13:20;102283.28;;;11.54;84.46
17781;BME280;8498;52.516;13.790;2022-11-11T00:19:02;102281.78;;;11.49;84.73
17781;BME280;8498;52.516;13.790;2022-11-11T00:25:02;102287.59;;;11.38;85.11
17781;BME280;8498;52.516;13.790;2022-11-11T00:30:46;102298.22;;;11.38;85.61
17781;BME280;8498;52.516;13.790;2022-11-11T00:36:27;102301.16;;;11.32;86.04
17781;BME280;8498;52.516;13.790;2022-11-11T00:42:09;102304.09;;;11.26;86.25
17781;BME280;8498;52.516;13.790;2022-11-11T00:47:50;102323.66;;;11.25;86.24
17781;BME280;8498;52.516;13.790;2022-11-11T00:53:49;102314.09;;;11.21;86.59
17781;BME280;8498;52.516;13.790;2022-11-11T00:59:29;102308.97;;;11.16;86.20
17781;BME280;8498;52.516;13.790;2022-11-11T01:05:10;102295.22;;;11.07;87.09
17781;BME280;8498;52.516;13.790;2022-11-11T01:10:51;102294.16;;;11.11;86.67
17781;BME280;8498;52.516;13.790;2022-11-11T01:16:32;102271.16;;;11.10;86.49
17781;BME280;8498;52.516;13.790;2022-11-11T01:22:13;102271.69;;;10.97;87.44
17781;BME280;8498;52.516;13.790;2022-11-11T01:27:54;102270.38;;;10.87;87.47
17781;BME280;8498;52.516;13.790;2022-11-11T01:33:36;102268.25;;;10.95;87.90
17781;BME280;8498;52.516;13.790;2022-11-11T01:39:17;102273.88;;;11.08;87.09
17781;BME280;8498;52.516;13.790;2022-11-11T01:44:58;102271.69;;;10.97;87.65
17781;BME280;8498;52.516;13.790;2022-11-11T01:50:40;102281.88;;;11.08;86.96
17781;BME280;8498;52.516;13.790;2022-11-11T01:56:21;102280.59;;;10.96;87.41
17781;BME280;8498;52.516;13.790;2022-11-11T02:02:08;102278.28;;;10.89;88.05
17781;BME280;8498;52.516;13.790;2022-11-11T02:07:54;102281.34;;;11.00;87.04
17781;BME280;8498;52.516;13.790;2022-11-11T02:13:38;102298.00;;;11.03;86.67
17781;BME280;8498;52.516;13.790;2022-11-11T02:19:44;102303.47;;;11.00;86.27
17781;BME280;8498;52.516;13.790;2022-11-11T02:25:29;102311.66;;;10.96;86.72
17781;BME280;8498;52.516;13.790;2022-11-11T02:31:11;102316.22;;;10.92;86.98
17781;BME280;8498;52.516;13.790;2022-11-11T02:36:53;102318.88;;;10.92;87.52
17781;BME280;8498;52.516;13.790;2022-11-11T02:42:34;102316.84;;;10.99;86.82
17781;BME280;8498;52.516;13.790;2022-11-11T02:48:16;102314.50;;;10.91;87.22
17781;BME280;8498;52.516;13.790;2022-11-11T02:53:56;102306.78;;;11.06;86.94
17781;BME280;8498;52.516;13.790;2022-11-11T02:59:39;102321.94;;;11.03;86.97
17781;BME280;8498;52.516;13.790;2022-11-11T03:05:21;102319.16;;;11.07;86.47
17781;BME280;8498;52.516;13.790;2022-11-11T03:11:03;102307.72;;;11.04;86.66
17781;BME280;8498;52.516;13.790;2022-11-11T03:16:44;102295.47;;;11.00;86.76
17781;BME280;8498;52.516;13.790;2022-11-11T03:23:01;102294.72;;;10.98;86.95
17781;BME280;8498;52.516;13.790;2022-11-11T03:28:42;102296.69;;;10.93;87.00
17781;BME280;8498;52.516;13.790;2022-11-11T03:34:23;102294.31;;;10.87;87.55
17781;BME280;8498;52.516;13.790;2022-11-11T03:40:04;102280.34;;;10.82;87.80
17781;BME280;8498;52.516;13.790;2022-11-11T03:45:46;102278.53;;;10.83;88.00
17781;BME280;8498;52.516;13.790;2022-11-11T03:51:28;102267.31;;;10.76;88.27
17781;BME280;8498;52.516;13.790;2022-11-11T03:57:08;102258.19;;;10.82;88.30
17781;BME280;8498;52.516;13.790;2022-11-11T04:03:17;102248.66;;;10.78;88.08
17781;BME280;8498;52.516;13.790;2022-11-11T04:09:17;102258.16;;;10.83;87.86
17781;BME280;8498;52.516;13.790;2022-11-11T04:15:16;102267.72;;;10.87;87.50
17781;BME280;8498;52.516;13.790;2022-11-11T04:21:26;102266.63;;;10.91;87.37
17781;BME280;8498;52.516;13.790;2022-11-11T04:27:23;102264.91;;;10.90;87.47
17781;BME280;8498;52.516;13.790;2022-11-11T04:33:04;102268.31;;;10.94;86.82
17781;BME280;8498;52.516;13.790;2022-11-11T04:38:44;102272.88;;;10.90;87.11
17781;BME280;8498;52.516;13.790;2022-11-11T04:44:44;102270.09;;;10.93;87.26
17781;BME280;8498;52.516;13.790;2022-11-11T04:50:45;102271.03;;;10.92;86.79
17781;BME280;8498;52.516;13.790;2022-11-11T04:56:25;102281.53;;;10.95;86.61
17781;BME280;8498;52.516;13.790;2022-11-11T05:02:25;102281.72;;;10.91;86.92
17781;BME280;8498;52.516;13.790;2022-11-11T05:08:24;102290.38;;;10.96;86.56
17781;BME280;8498;52.516;13.790;2022-11-11T05:14:23;102292.31;;;10.92;86.65
17781;BME280;8498;52.516;13.790;2022-11-11T05:20:23;102286.91;;;10.94;86.22
17781;BME280;8498;52.516;13.790;2022-11-11T05:26:35;102292.81;;;10.80;87.18
17781;BME280;8498;52.516;13.790;2022-11-11T05:32:18;102315.06;;;10.79;87.02
17781;BME280;8498;52.516;13.790;2022-11-11T05:38:03;102324.81;;;10.79;87.00
17781;BME280;8498;52.516;13.790;2022-11-11T05:44:02;102345.06;;;10.81;86.44
17781;BME280;8498;52.516;13.790;2022-11-11T05:49:44;102331.25;;;10.73;86.99
17781;BME280;8498;52.516;13.790;2022-11-11T05:55:25;102348.81;;;10.77;86.55
17781;BME280;8498;52.516;13.790;2022-11-11T06:01:05;102338.47;;;10.70;87.04
17781;BME280;8498;52.516;13.790;2022-11-11T06:06:46;102329.16;;;10.59;87.34
17781;BME280;8498;52.516;13.790;2022-11-11T06:12:27;102337.13;;;10.59;87.43
17781;BME280;8498;52.516;13.790;2022-11-11T06:18:28;102328.84;;;10.47;87.90
17781;BME280;8498;52.516;13.790;2022-11-11T06:24:10;102348.22;;;10.49;88.66
17781;BME280;8498;52.516;13.790;2022-11-11T06:29:51;102348.84;;;10.55;87.97
17781;BME280;8498;52.516;13.790;2022-11-11T06:35:33;102358.00;;;10.48;88.74
17781;BME280;8498;52.516;13.790;2022-11-11T06:41:18;102347.00;;;10.57;88.42
17781;BME280;8498;52.516;13.790;2022-11-11T06:46:59;102349.56;;;10.59;88.46
17781;BME280;8498;52.516;13.790;2022-11-11T06:52:41;102339.63;;;10.64;88.40
17781;BME280;8498;52.516;13.790;2022-11-11T06:58:22;102341.22;;;10.68;88.15
17781;BME280;8498;52.516;13.790;2022-11-11T07:04:04;102342.63;;;10.77;87.90
17781;BME280;8498;52.516;13.790;2022-11-11T07:09:45;102356.78;;;10.77;87.41
17781;BME280;8498;52.516;13.790;2022-11-11T07:15:26;102365.13;;;10.90;87.10
17781;BME280;8498;52.516;13.790;2022-11-11T07:21:08;102348.13;;;10.92;86.64
17781;BME280;8498;52.516;13.790;2022-11-11T07:26:48;102341.63;;;10.79;87.22
17781;BME280;8498;52.516;13.790;2022-11-11T07:32:30;102341.38;;;10.85;86.87
17781;BME280;8498;52.516;13.790;2022-11-11T07:38:10;102361.84;;;11.03;86.01
17781;BME280;8498;52.516;13.790;2022-11-11T07:43:51;102368.66;;;11.11;85.58
17781;BME280;8498;52.516;13.790;2022-11-11T07:49:32;102376.41;;;11.15;85.12
17781;BME280;8498;52.516;13.790;2022-11-11T07:55:13;102385.94;;;11.21;84.86
17781;BME280;8498;52.516;13.790;2022-11-11T08:00:54;102393.69;;;11.25;84.60
17781;BME280;8498;52.516;13.790;2022-11-11T08:06:43;102404.81;;;11.35;84.43
17781;BME280;8498;52.516;13.790;2022-11-11T08:12:25;102398.63;;;11.34;84.52
17781;BME280;8498;52.516;13.790;2022-11-11T08:18:24;102434.88;;;11.57;84.17
17781;BME280;8498;52.516;13.790;2022-11-11T08:24:05;102431.44;;;11.74;82.96
17781;BME280;8498;52.516;13.790;2022-11-11T08:30:09;102435.78;;;11.76;82.76
17781;BME280;8498;52.516;13.790;2022-11-11T08:35:51;102430.97;;;11.85;82.39
17781;BME280;8498;52.516;13.790;2022-11-11T08:41:35;102425.69;;;12.03;81.81
17781;BME280;8498;52.516;13.790;2022-11-11T08:47:15;102446.22;;;12.20;80.86
17781;BME280;8498;52.516;13.790;2022-11-11T08:52:57;102458.66;;;12.76;82.83
17781;BME280;8498;52.516;13.790;2022-11-11T08:58:38;102456.19;;;13.42;78.81
17781;BME280;8498;52.516;13.790;2022-11-11T09:04:19;102475.97;;;13.72;77.51
17781;BME280;8498;52.516;13.790;2022-11-11T09:10:20;102474.88;;;13.76;73.10
17781;BME280;8498;52.516;13.790;2022-11-11T09:16:01;102474.72;;;13.79;72.57
17781;BME280;8498;52.516;13.790;2022-11-11T09:21:42;102477.13;;;13.84;71.52
17781;BME280;8498;52.516;13.790;2022-11-11T09:27:23;102468.28;;;13.99;71.35
17781;BME280;8498;52.516;13.790;2022-11-11T09:33:04;102469.91;;;14.02;70.57
17781;BME280;8498;52.516;13.790;2022-11-11T09:38:45;102481.25;;;14.22;70.11
17781;BME280;8498;52.516;13.790;2022-11-11T09:44:39;102509.03;;;14.20;68.74
17781;BME280;8498;52.516;13.790;2022-11-11T09:50:24;102500.50;;;14.29;67.91
17781;BME280;8498;52.516;13.790;2022-11-11T09:56:08;102519.81;;;14.51;67.40
17781;BME280;8498;52.516;13.790;2022-11-11T10:02:34;102514.03;;;14.59;66.93
17781;BME280;8498;52.516;13.790;2022-11-11T10:08:25;102514.63;;;14.64;66.34
17781;BME280;8498;52.516;13.790;2022-11-11T10:14:07;102497.38;;;14.69;66.35
17781;BME280;8498;52.516;13.790;2022-11-11T10:20:03;102491.06;;;14.55;66.38
17781;BME280;8498;52.516;13.790;2022-11-11T10:25:54;102492.00;;;14.54;65.50
17781;BME280;8498;52.516;13.790;2022-11-11T10:31:35;102492.97;;;14.84;64.79
17781;BME280;8498;52.516;13.790;2022-11-11T10:37:36;102491.28;;;15.13;63.61
17781;BME280;8498;52.516;13.790;2022-11-11T10:43:23;102493.09;;;15.42;62.08
17781;BME280;8498;52.516;13.790;2022-11-11T10:49:18;102480.19;;;15.49;62.20
17781;BME280;8498;52.516;13.790;2022-11-11T10:55:07;102479.03;;;15.83;61.39
17781;BME280;8498;52.516;13.790;2022-11-11T11:00:50;102468.50;;;15.80;61.81
17781;BME280;8498;52.516;13.790;2022-11-11T11:06:35;102462.47;;;15.32;62.61
17781;BME280;8498;52.516;13.790;2022-11-11T11:18:17;102463.84;;;15.54;61.73
17781;BME280;8498;52.516;13.790;2022-11-11T11:23:58;102458.44;;;15.55;62.09
17781;BME280;8498;52.516;13.790;2022-11-11T11:29:43;102456.81;;;15.37;62.23
17781;BME280;8498;52.516;13.790;2022-11-11T11:35:41;102438.84;;;15.25;62.71
17781;BME280;8498;52.516;13.790;2022-11-11T11:41:41;102437.59;;;15.30;62.94
17781;BME280;8498;52.516;13.790;2022-11-11T11:47:42;102447.38;;;15.46;63.03
17781;BME280;8498;52.516;13.790;2022-11-11T12:00:11;102437.59;;;15.30;63.47
17781;BME280;8498;52.516;13.790;2022-11-11T12:11:51;102441.59;;;15.23;64.16
17781;BME280;8498;52.516;13.790;2022-11-11T12:17:58;102431.22;;;15.03;64.67
17781;BME280;8498;52.516;13.790;2022-11-11T12:30:02;102437.97;;;15.24;63.88
17781;BME280;8498;52.516;13.790;2022-11-11T12:35:47;102444.50;;;15.34;63.93
17781;BME280;8498;52.516;13.790;2022-11-11T12:41:47;102436.84;;;15.42;63.83
17781;BME280;8498;52.516;13.790;2022-11-11T12:47:38;102437.03;;;15.39;63.87
17781;BME280;8498;52.516;13.790;2022-11-11T12:59:39;102433.00;;;15.32;63.31
17781;BME280;8498;52.516;13.790;2022-11-11T13:18:01;102421.91;;;15.24;63.96
17781;BME280;8498;52.516;13.790;2022-11-11T13:23:42;102415.94;;;15.05;64.46
17781;BME280;8498;52.516;13.790;2022-11-11T13:41:35;102423.00;;;14.60;68.04
17781;BME280;8498;52.516;13.790;2022-11-11T13:47:20;102428.69;;;14.54;68.64
17781;BME280;8498;52.516;13.790;2022-11-11T13:53:05;102425.50;;;14.48;68.99
17781;BME280;8498;52.516;13.790;2022-11-11T13:58:47;102422.91;;;14.46;69.23
17781;BME280;8498;52.516;13.790;2022-11-11T14:04:30;102417.84;;;14.42;69.26
17781;BME280;8498;52.516;13.790;2022-11-11T14:15:56;102438.59;;;14.21;70.86
17781;BME280;8498;52.516;13.790;2022-11-11T14:21:58;102433.47;;;14.01;71.92
17781;BME280;8498;52.516;13.790;2022-11-11T14:27:42;102437.09;;;14.00;71.78
17781;BME280;8498;52.516;13.790;2022-11-11T14:39:38;102446.28;;;13.94;72.06
17781;BME280;8498;52.516;13.790;2022-11-11T14:51:39;102452.56;;;13.60;73.33
17781;BME280;8498;52.516;13.790;2022-11-11T14:57:36;102456.19;;;13.59;73.75
17781;BME280;8498;52.516;13.790;2022-11-11T15:03:31;102452.91;;;13.54;73.90
17781;BME280;8498;52.516;13.790;2022-11-11T15:15:22;102461.88;;;13.36;74.78
17781;BME280;8498;52.516;13.790;2022-11-11T15:21:49;102469.16;;;13.32;74.72
17781;BME280;8498;52.516;13.790;2022-11-11T15:38:45;102462.91;;;12.97;76.31
17781;BME280;8498;52.516;13.790;2022-11-11T15:44:29;102465.84;;;12.74;77.06
17781;BME280;8498;52.516;13.790;2022-11-11T15:50:17;102460.69;;;12.52;77.80
17781;BME280;8498;52.516;13.790;2022-11-11T15:55:58;102468.69;;;12.33;79.04
17781;BME280;8498;52.516;13.790;2022-11-11T16:01:42;102470.19;;;12.20;79.30
17781;BME280;8498;52.516;13.790;2022-11-11T16:07:33;102477.81;;;12.09;79.71
17781;BME280;8498;52.516;13.790;2022-11-11T16:13:19;102478.53;;;11.94;80.42
17781;BME280;8498;52.516;13.790;2022-11-11T16:19:11;102486.38;;;11.76;80.83
17781;BME280;8498;52.516;13.790;2022-11-11T16:24:55;102490.47;;;11.63;81.52
17781;BME280;8498;52.516;13.790;2022-11-11T16:30:36;102489.16;;;11.53;81.98
17781;BME280;8498;52.516;13.790;2022-11-11T16:36:17;102494.81;;;11.46;82.37
17781;BME280;8498;52.516;13.790;2022-11-11T16:42:04;102504.06;;;11.37;82.96
17781;BME280;8498;52.516;13.790;2022-11-11T16:47:48;102501.78;;;11.28;83.63
17781;BME280;8498;52.516;13.790;2022-11-11T16:53:32;102496.66;;;11.23;84.00
17781;BME280;8498;52.516;13.790;2022-11-11T17:05:02;102500.03;;;11.07;84.52
17781;BME280;8498;52.516;13.790;2022-11-11T17:10:43;102509.38;;;10.95;85.20
17781;BME280;8498;52.516;13.790;2022-11-11T17:16:24;102509.69;;;10.87;85.76
17781;BME280;8498;52.516;13.790;2022-11-11T17:22:07;102510.66;;;10.85;85.21
17781;BME280;8498;52.516;13.790;2022-11-11T17:27:49;102511.09;;;10.74;86.12
17781;BME280;8498;52.516;13.790;2022-11-11T17:33:30;102512.38;;;10.64;86.01
17781;BME280;8498;52.516;13.790;2022-11-11T17:39:11;102523.13;;;10.61;86.23
17781;BME280;8498;52.516;13.790;2022-11-11T17:44:52;102529.66;;;10.52;86.27
17781;BME280;8498;52.516;13.790;2022-11-11T17:50:35;102520.16;;;10.47;86.31
17781;BME280;8498;52.516;13.790;2022-11-11T17:56:17;102529.41;;;10.37;86.27
17781;BME280;8498;52.516;13.790;2022-11-11T18:01:59;102524.31;;;10.30;86.21
17781;BME280;8498;52.516;13.790;2022-11-11T18:07:42;102533.66;;;10.17;86.16
17781;BME280;8498;52.516;13.790;2022-11-11T18:13:24;102534.72;;;10.12;86.58
17781;BME280;8498;52.516;13.790;2022-11-11T18:19:09;102532.34;;;10.04;86.29
17781;BME280;8498;52.516;13.790;2022-11-11T18:24:51;102536.94;;;9.99;86.17
17781;BME280;8498;52.516;13.790;2022-11-11T18:30:40;102540.03;;;9.87;86.35
17781;BME280;8498;52.516;13.790;2022-11-11T18:36:21;102524.34;;;9.81;86.21
17781;BME280;8498;52.516;13.790;2022-11-11T18:42:02;102539.72;;;9.71;86.79
17781;BME280;8498;52.516;13.790;2022-11-11T18:47:46;102546.31;;;9.60;86.61
17781;BME280;8498;52.516;13.790;2022-11-11T18:53:32;102547.44;;;9.52;86.31
17781;BME280;8498;52.516;13.790;2022-11-11T18:59:14;102553.16;;;9.40;86.54
17781;BME280;8498;52.516;13.790;2022-11-11T19:04:55;102561.22;;;9.37;86.38
17781;BME280;8498;52.516;13.790;2022-11-11T19:10:35;102558.25;;;9.20;86.68
17781;BME280;8498;52.516;13.790;2022-11-11T19:16:20;102563.75;;;9.14;86.35
17781;BME280;8498;52.516;13.790;2022-11-11T19:22:02;102556.13;;;9.03;85.77
17781;BME280;8498;52.516;13.790;2022-11-11T19:27:43;102571.41;;;8.95;85.97
17781;BME280;8498;52.516;13.790;2022-11-11T19:33:27;102563.47;;;8.95;86.18
17781;BME280;8498;52.516;13.790;2022-11-11T19:39:08;102575.16;;;8.90;85.93
17781;BME280;8498;52.516;13.790;2022-11-11T19:44:50;102579.72;;;8.84;85.99
17781;BME280;8498;52.516;13.790;2022-11-11T19:50:32;102578.22;;;8.76;86.09
17781;BME280;8498;52.516;13.790;2022-11-11T19:56:16;102581.13;;;8.67;86.66
17781;BME280;8498;52.516;13.790;2022-11-11T20:01:57;102589.28;;;8.61;86.61
17781;BME280;8498;52.516;13.790;2022-11-11T20:07:39;102586.56;;;8.62;86.40
17781;BME280;8498;52.516;13.790;2022-11-11T20:13:20;102591.19;;;8.56;86.63
17781;BME280;8498;52.516;13.790;2022-11-11T20:19:01;102599.38;;;8.48;85.69
17781;BME280;8498;52.516;13.790;2022-11-11T20:24:42;102604.56;;;8.51;85.81
17781;BME280;8498;52.516;13.790;2022-11-11T20:30:24;102603.94;;;8.41;86.22
17781;BME280;8498;52.516;13.790;2022-11-11T20:36:08;102611.84;;;8.43;85.61
17781;BME280;8498;52.516;13.790;2022-11-11T20:41:51;102597.13;;;8.33;86.36
17781;BME280;8498;52.516;13.790;2022-11-11T20:47:33;102610.53;;;8.27;86.64
17781;BME280;8498;52.516;13.790;2022-11-11T20:53:14;102606.97;;;8.28;86.53
17781;BME280;8498;52.516;13.790;2022-11-11T20:58:55;102609.69;;;8.25;86.78
17781;BME280;8498;52.516;13.790;2022-11-11T21:04:37;102621.28;;;8.21;86.77
17781;BME280;8498;52.516;13.790;2022-11-11T21:10:18;102621.19;;;8.24;86.70
17781;BME280;8498;52.516;13.790;2022-11-11T21:21:51;102637.34;;;8.15;86.37
17781;BME280;8498;52.516;13.790;2022-11-11T21:27:32;102641.13;;;8.04;86.62
17781;BME280;8498;52.516;13.790;2022-11-11T21:33:13;102642.06;;;8.02;86.92
17781;BME280;8498;52.516;13.790;2022-11-11T21:38:54;102640.56;;;7.92;86.72
17781;BME280;8498;52.516;13.790;2022-11-11T21:44:35;102650.31;;;7.90;86.98
17781;BME280;8498;52.516;13.790;2022-11-11T21:50:16;102642.53;;;7.85;86.96
17781;BME280;8498;52.516;13.790;2022-11-11T21:56:01;102638.31;;;7.78;86.63
17781;BME280;8498;52.516;13.790;2022-11-11T22:01:42;102639.94;;;7.82;86.36
17781;BME280;8498;52.516;13.790;2022-11-11T22:07:23;102648.88;;;7.78;86.46
17781;BME280;8498;52.516;13.790;2022-11-11T22:13:06;102650.59;;;7.79;86.03
17781;BME280;8498;52.516;13.790;2022-11-11T22:18:51;102644.63;;;7.71;86.15
17781;BME280;8498;52.516;13.790;2022-11-11T22:24:32;102650.75;;;7.73;86.47
17781;BME280;8498;52.516;13.790;2022-11-11T22:30:13;102644.63;;;7.71;86.39
17781;BME280;8498;52.516;13.790;2022-11-11T22:35:57;102640.25;;;7.70;86.59
17781;BME280;8498;52.516;13.790;2022-11-11T22:41:39;102652.50;;;7.74;86.81
17781;BME280;8498;52.516;13.790;2022-11-11T22:47:20;102648.22;;;7.68;86.89
17781;BME280;8498;52.516;13.790;2022-11-11T22:53:01;102648.28;;;7.67;86.58
17781;BME280;8498;52.516;13.790;2022-11-11T22:58:43;102645.72;;;7.64;86.13
17781;BME280;8498;52.516;13.790;2022-11-11T23:04:24;102649.19;;;7.66;86.53
17781;BME280;8498;52.516;13.790;2022-11-11T23:10:05;102649.19;;;7.66;86.06
17781;BME280;8498;52.516;13.790;2022-11-11T23:15:51;102657.25;;;7.60;86.38
17781;BME280;8498;52.516;13.790;2022-11-11T23:21:33;102651.50;;;7.43;87.06
17781;BME280;8498;52.516;13.790;2022-11-11T23:27:14;102660.59;;;7.31;86.54
17781;BME280;8498;52.516;13.790;2022-11-11T23:32:55;102654.59;;;7.24;87.33
17781;BME280;8498;52.516;13.790;2022-11-11T23:38:36;102653.03;;;7.16;87.05
17781;BME280;8498;52.516;13.790;2022-11-11T23:44:17;102644.97;;;7.20;86.25
17781;BME280;8498;52.516;13.790;2022-11-11T23:49:58;102636.94;;;7.25;86.13
17781;BME280;8498;52.516;13.790;2022-11-11T23:55:39;102636.41;;;7.09;86.80
